createdAt,value
2022-12-05T00:01:42.518Z,102070.19
2022-12-05T00:03:44.920Z,102067.53
2022-12-05T00:05:46.844Z,102074.56
2022-12-05T00:07:48.358Z,102065.84
2022-12-05T00:09:50.883Z,102072.78
2022-12-05T00:11:52.325Z,102070.19
2022-12-05T00:13:55.672Z,102064.97
2022-12-05T00:15:57.209Z,102064.97
2022-12-05T00:17:58.646Z,102064.97
2022-12-05T00:20:00.404Z,102061.44
2022-12-05T00:22:02.003Z,102057.94
2022-12-05T00:24:05.969Z,102057.94
2022-12-05T00:26:07.743Z,102058.78
2022-12-05T00:28:09.317Z,102057.03
2022-12-05T00:30:11.093Z,102050.97
2022-12-05T00:32:12.632Z,102048.34
2022-12-05T00:34:14.404Z,102047.44
2022-12-05T00:36:27.312Z,102048.28
2022-12-05T00:38:28.993Z,102046.50
2022-12-05T00:40:30.621Z,102048.22
2022-12-05T00:42:32.056Z,102047.34
2022-12-05T00:44:33.662Z,102040.41
2022-12-05T00:46:35.980Z,102040.38
2022-12-05T00:48:38.271Z,102038.59
2022-12-05T00:50:39.716Z,102035.13
2022-12-05T00:52:41.146Z,102037.75
2022-12-05T00:54:43.624Z,102037.75
2022-12-05T00:56:45.953Z,102041.22
2022-12-05T00:58:48.232Z,102039.50
2022-12-05T01:00:49.722Z,102036.91
2022-12-05T01:02:51.273Z,102036.06
2022-12-05T01:04:52.745Z,102037.78
2022-12-05T01:06:55.964Z,102037.75
2022-12-05T01:08:58.300Z,102034.28
2022-12-05T01:11:00.402Z,102039.50
2022-12-05T01:13:01.819Z,102033.38
2022-12-05T01:15:04.590Z,102036.88
2022-12-05T01:17:06.204Z,102036.91
2022-12-05T01:19:12.094Z,102033.41
2022-12-05T01:21:13.848Z,102028.19
2022-12-05T01:23:15.743Z,102029.97
2022-12-05T01:25:17.242Z,102045.66
2022-12-05T01:27:18.674Z,102038.66
2022-12-05T01:29:22.129Z,102039.56
2022-12-05T01:31:29.749Z,102042.19
2022-12-05T01:33:31.286Z,102042.19
2022-12-05T01:35:37.177Z,102031.75
2022-12-05T01:37:38.608Z,102040.47
2022-12-05T01:39:40.034Z,102036.97
2022-12-05T01:41:48.191Z,102036.13
2022-12-05T01:44:08.088Z,102039.59
2022-12-05T01:46:09.597Z,102030.88
2022-12-05T01:48:28.340Z,102035.25
2022-12-05T01:50:29.709Z,102054.41
2022-12-05T01:52:33.370Z,102048.28
2022-12-05T01:54:37.904Z,102043.06
2022-12-05T01:56:41.942Z,102042.19
2022-12-05T01:58:44.874Z,102046.56
2022-12-05T02:00:47.323Z,102029.94
2022-12-05T02:02:55.491Z,102039.56
2022-12-05T02:05:07.610Z,102043.88
2022-12-05T02:07:09.194Z,102042.13
2022-12-05T02:09:10.632Z,102039.53
2022-12-05T02:11:12.607Z,102032.56
2022-12-05T02:13:37.601Z,102042.13
2022-12-05T02:16:04.559Z,102026.44
2022-12-05T02:18:26.276Z,102035.16
2022-12-05T02:20:59.374Z,102040.41
2022-12-05T02:23:27.381Z,102029.06
2022-12-05T02:25:28.745Z,102026.50
2022-12-05T02:27:41.913Z,102030.88
2022-12-05T02:29:52.424Z,102027.41
2022-12-05T02:32:00.079Z,102017.84
2022-12-05T02:34:19.875Z,102020.41
2022-12-05T02:36:42.799Z,102018.66
2022-12-05T02:39:22.779Z,102009.91
2022-12-05T02:41:30.603Z,102004.69
2022-12-05T02:43:49.712Z,102008.16
2022-12-05T02:45:57.274Z,102005.56
2022-12-05T02:47:59.910Z,101998.63
2022-12-05T02:50:01.429Z,102007.31
2022-12-05T02:52:06.619Z,101997.72
2022-12-05T02:54:12.605Z,102009.09
2022-12-05T02:56:14.931Z,102004.72
2022-12-05T02:58:22.801Z,102005.63
2022-12-05T03:00:24.286Z,102000.41
2022-12-05T03:02:32.070Z,101999.53
2022-12-05T03:04:33.621Z,102002.09
2022-12-05T03:06:41.984Z,102001.22
2022-12-05T03:08:58.103Z,102002.97
2022-12-05T03:11:02.557Z,102008.22
2022-12-05T03:13:13.881Z,102006.50
2022-12-05T03:15:22.994Z,102009.13
2022-12-05T03:17:30.180Z,102005.66
2022-12-05T03:20:06.242Z,102010.00
2022-12-05T03:22:15.315Z,102008.25
2022-12-05T03:24:16.868Z,102006.53
2022-12-05T03:26:24.781Z,102011.78
2022-12-05T03:28:38.957Z,102012.63
2022-12-05T03:30:42.328Z,102010.03
2022-12-05T03:33:02.594Z,102005.63
2022-12-05T03:35:07.003Z,102011.72
2022-12-05T03:37:19.259Z,102007.41
2022-12-05T03:39:28.581Z,102003.91
2022-12-05T03:41:46.097Z,102005.66
2022-12-05T03:44:01.250Z,102019.59
2022-12-05T03:46:32.274Z,102009.16
2022-12-05T03:48:47.980Z,102017.00
2022-12-05T03:50:53.589Z,102007.41
2022-12-05T03:53:20.341Z,102002.19
2022-12-05T03:55:27.839Z,102005.69
2022-12-05T03:57:50.142Z,102000.47
2022-12-05T03:59:59.914Z,101998.69
2022-12-05T04:02:07.435Z,101997.84
2022-12-05T04:04:17.015Z,102006.53
2022-12-05T04:06:24.132Z,101999.56
2022-12-05T04:08:33.274Z,101999.56
2022-12-05T04:10:48.609Z,101996.97
2022-12-05T04:12:54.068Z,102000.47
2022-12-05T04:14:59.986Z,102000.44
2022-12-05T04:17:15.157Z,101997.81
2022-12-05T04:19:28.822Z,101998.69
2022-12-05T04:21:39.338Z,101993.47
2022-12-05T04:23:46.285Z,101989.94
2022-12-05T04:26:00.531Z,101993.47
2022-12-05T04:28:27.138Z,102001.31
2022-12-05T04:30:37.023Z,101997.00
2022-12-05T04:32:56.899Z,101997.84
2022-12-05T04:35:03.998Z,102000.47
2022-12-05T04:37:12.692Z,101997.91
2022-12-05T04:39:31.476Z,102005.72
2022-12-05T04:41:36.356Z,102003.97
2022-12-05T04:43:41.943Z,102004.00
2022-12-05T04:45:44.844Z,102007.50
2022-12-05T04:47:53.443Z,102013.63
2022-12-05T04:49:56.105Z,102004.91
2022-12-05T04:52:04.988Z,102017.13
2022-12-05T04:54:27.932Z,102020.63
2022-12-05T04:56:35.477Z,102013.69
2022-12-05T04:58:36.961Z,102014.53
2022-12-05T05:01:00.941Z,102011.06
2022-12-05T05:03:25.224Z,102015.41
2022-12-05T05:05:28.197Z,102011.06
2022-12-05T05:07:29.819Z,102006.72
2022-12-05T05:09:31.296Z,102011.06
2022-12-05T05:11:35.790Z,102009.31
2022-12-05T05:13:37.225Z,102010.22
2022-12-05T05:15:38.706Z,102013.72
2022-12-05T05:17:43.148Z,102013.72
2022-12-05T05:19:44.603Z,102007.66
2022-12-05T05:21:46.115Z,102011.19
2022-12-05T05:23:48.030Z,102016.50
2022-12-05T05:25:55.400Z,102013.03
2022-12-05T05:27:57.146Z,102013.06
2022-12-05T05:29:58.936Z,102008.72
2022-12-05T05:32:00.520Z,102013.06
2022-12-05T05:34:09.097Z,102007.84
2022-12-05T05:36:13.914Z,102009.59
2022-12-05T05:38:15.353Z,102012.25
2022-12-05T05:40:17.311Z,102010.50
2022-12-05T05:42:18.750Z,102009.66
2022-12-05T05:44:20.206Z,102007.91
2022-12-05T05:46:24.516Z,102015.75
2022-12-05T05:48:26.000Z,102012.25
2022-12-05T05:50:27.502Z,102011.41
2022-12-05T05:52:28.952Z,102012.31
2022-12-05T05:54:30.437Z,102014.94
2022-12-05T05:56:31.959Z,102010.59
2022-12-05T05:58:33.741Z,102007.97
2022-12-05T06:00:35.625Z,102014.97
2022-12-05T06:02:37.603Z,102020.22
2022-12-05T06:04:39.198Z,102013.22
2022-12-05T06:06:40.896Z,102017.56
2022-12-05T06:08:43.618Z,102014.13
2022-12-05T06:10:45.044Z,102018.50
2022-12-05T06:12:46.571Z,102009.81
2022-12-05T06:14:49.179Z,102007.19
2022-12-05T06:16:50.685Z,102008.06
2022-12-05T06:18:52.909Z,102002.00
2022-12-05T06:20:55.748Z,102012.44
2022-12-05T06:22:57.198Z,101999.38
2022-12-05T06:24:58.753Z,102002.88
2022-12-05T06:27:00.203Z,102003.78
2022-12-05T06:29:01.719Z,102007.31
2022-12-05T06:31:08.768Z,102006.44
2022-12-05T06:33:11.437Z,102007.31
2022-12-05T06:35:15.964Z,102002.97
2022-12-05T06:37:17.394Z,102013.47
2022-12-05T06:39:18.842Z,102009.09
2022-12-05T06:41:21.224Z,102011.75
2022-12-05T06:43:22.810Z,102016.13
2022-12-05T06:45:24.489Z,102015.25
2022-12-05T06:47:25.908Z,102020.50
2022-12-05T06:49:36.387Z,102015.28
2022-12-05T06:51:39.314Z,102017.94
2022-12-05T06:53:41.538Z,102020.56
2022-12-05T06:55:42.969Z,102019.69
2022-12-05T06:57:44.399Z,102013.59
2022-12-05T06:59:45.869Z,102017.09
2022-12-05T07:01:47.350Z,102016.22
2022-12-05T07:03:49.927Z,102016.25
2022-12-05T07:05:51.350Z,102014.53
2022-12-05T07:07:53.043Z,102013.69
2022-12-05T07:09:54.604Z,102011.06
2022-12-05T07:11:56.032Z,102016.34
2022-12-05T07:13:57.495Z,102007.66
2022-12-05T07:15:59.466Z,102008.53
2022-12-05T07:18:00.969Z,102014.66
2022-12-05T07:20:02.456Z,102012.94
2022-12-05T07:22:04.533Z,102013.81
2022-12-05T07:24:06.043Z,102012.94
2022-12-05T07:26:09.417Z,102010.34
2022-12-05T07:28:10.878Z,102015.59
2022-12-05T07:30:12.514Z,102010.34
2022-12-05T07:32:14.063Z,102011.25
2022-12-05T07:34:15.515Z,102014.72
2022-12-05T07:36:20.421Z,102012.97
2022-12-05T07:38:21.867Z,102012.09
2022-12-05T07:40:23.366Z,102014.72
2022-12-05T07:42:24.827Z,102013.84
2022-12-05T07:44:26.537Z,102012.13
2022-12-05T07:46:29.122Z,102015.63
2022-12-05T07:48:31.062Z,102007.78
2022-12-05T07:50:32.498Z,102018.19
2022-12-05T07:52:34.057Z,102009.47
2022-12-05T07:54:35.643Z,102013.84
2022-12-05T07:56:37.074Z,102012.94
2022-12-05T07:58:38.516Z,102012.97
2022-12-05T08:00:39.951Z,102008.63
2022-12-05T08:02:41.508Z,102010.38
2022-12-05T08:04:43.076Z,102013.84
2022-12-05T08:06:44.588Z,102010.38
2022-12-05T08:08:49.916Z,102013.88
2022-12-05T08:10:51.383Z,102007.75
2022-12-05T08:12:52.894Z,102014.72
2022-12-05T08:14:54.338Z,102010.38
2022-12-05T08:16:55.892Z,102008.63
2022-12-05T08:18:59.406Z,102020.84
2022-12-05T08:21:02.746Z,102011.25
2022-12-05T08:23:04.251Z,102013.00
2022-12-05T08:25:06.130Z,102015.63
2022-12-05T08:27:07.561Z,102023.47
2022-12-05T08:29:12.206Z,102025.25
2022-12-05T08:31:18.374Z,102013.91
2022-12-05T08:33:19.842Z,102020.00
2022-12-05T08:35:21.300Z,102019.97
2022-12-05T08:37:22.802Z,102018.25
2022-12-05T08:39:24.544Z,102019.13
2022-12-05T08:41:28.979Z,102023.47
2022-12-05T08:43:31.220Z,102022.63
2022-12-05T08:45:32.699Z,102030.47
2022-12-05T08:47:34.158Z,102026.13
2022-12-05T08:49:35.606Z,102027.88
2022-12-05T08:51:37.158Z,102033.09
2022-12-05T08:53:44.382Z,102027.88
2022-12-05T08:55:46.398Z,102034.84
2022-12-05T08:57:47.813Z,102028.72
2022-12-05T08:59:49.237Z,102028.72
2022-12-05T09:01:50.963Z,102027.00
2022-12-05T09:03:53.303Z,102027.88
2022-12-05T09:05:55.004Z,102033.09
2022-12-05T09:07:57.307Z,102032.25
2022-12-05T09:09:58.760Z,102038.34
2022-12-05T09:12:00.959Z,102038.34
2022-12-05T09:14:03.178Z,102034.88
2022-12-05T09:16:10.375Z,102034.06
2022-12-05T09:18:12.657Z,102029.69
2022-12-05T09:20:14.476Z,102035.81
2022-12-05T09:22:15.893Z,102033.19
2022-12-05T09:24:17.465Z,102038.44
2022-12-05T09:26:22.021Z,102036.72
2022-12-05T09:28:24.000Z,102028.00
2022-12-05T09:30:25.458Z,102028.00
2022-12-05T09:32:27.027Z,102029.75
2022-12-05T09:34:29.340Z,102036.72
2022-12-05T09:36:32.067Z,102037.59
2022-12-05T09:38:33.553Z,102040.19
2022-12-05T09:40:41.722Z,102032.34
2022-12-05T09:42:58.840Z,102035.81
2022-12-05T09:45:05.936Z,102034.97
2022-12-05T09:47:26.041Z,102035.81
2022-12-05T09:49:30.418Z,102041.06
2022-12-05T09:51:32.356Z,102036.72
2022-12-05T09:53:36.829Z,102038.47
2022-12-05T09:55:46.156Z,102037.63
2022-12-05T09:57:52.535Z,102045.44
2022-12-05T09:59:54.355Z,102033.19
2022-12-05T10:02:18.472Z,102039.31
2022-12-05T10:04:20.195Z,102038.44
2022-12-05T10:06:29.101Z,102034.06
2022-12-05T10:08:49.090Z,102041.84
2022-12-05T10:11:08.376Z,102037.47
2022-12-05T10:13:26.206Z,102039.22
2022-12-05T10:15:30.718Z,102037.47
2022-12-05T10:17:35.285Z,102040.09
2022-12-05T10:19:45.047Z,102033.97
2022-12-05T10:21:59.071Z,102044.41
2022-12-05T10:24:11.120Z,102044.38
2022-12-05T10:26:16.719Z,102038.19
2022-12-05T10:28:50.620Z,102035.53
2022-12-05T10:30:57.052Z,102036.31
2022-12-05T10:33:06.410Z,102036.31
2022-12-05T10:35:39.101Z,102035.41
2022-12-05T10:37:51.980Z,102033.63
2022-12-05T10:39:55.402Z,102031.75
2022-12-05T10:41:56.934Z,102034.25
2022-12-05T10:43:59.634Z,102033.34
2022-12-05T10:46:02.405Z,102033.34
2022-12-05T10:48:04.174Z,102033.28
2022-12-05T10:50:19.907Z,102026.22
2022-12-05T10:52:21.366Z,102028.78
2022-12-05T10:54:27.074Z,102029.56
2022-12-05T10:56:46.863Z,102025.13
2022-12-05T10:58:56.643Z,102023.41
2022-12-05T11:01:08.910Z,102025.19
2022-12-05T11:03:28.528Z,102028.66
2022-12-05T11:05:33.457Z,102026.03
2022-12-05T11:07:43.790Z,102020.84
2022-12-05T11:09:47.601Z,102015.63
2022-12-05T11:12:19.149Z,102019.16
2022-12-05T11:14:26.278Z,102013.94
2022-12-05T11:16:34.199Z,102020.06
2022-12-05T11:18:36.538Z,102009.59
2022-12-05T11:20:39.978Z,102015.75
2022-12-05T11:22:45.775Z,102016.59
2022-12-05T11:24:50.045Z,102014.84
2022-12-05T11:26:51.912Z,102021.81
2022-12-05T11:28:53.353Z,102009.59
2022-12-05T11:31:00.782Z,102013.13
2022-12-05T11:33:19.185Z,102012.25
2022-12-05T11:35:26.403Z,102016.59
2022-12-05T11:37:42.984Z,102007.03
2022-12-05T11:39:44.446Z,102014.84
2022-12-05T11:42:13.973Z,102007.81
2022-12-05T11:44:47.482Z,102002.59
2022-12-05T11:47:01.067Z,102007.78
2022-12-05T11:49:27.535Z,102010.28
2022-12-05T11:51:49.064Z,102011.16
2022-12-05T11:54:30.645Z,102009.41
2022-12-05T11:56:48.119Z,102007.66
2022-12-05T11:59:00.980Z,102004.13
2022-12-05T12:01:27.444Z,102004.09
2022-12-05T12:03:54.099Z,101999.69
2022-12-05T12:06:09.182Z,102006.66
2022-12-05T12:08:16.600Z,102003.22
2022-12-05T12:10:28.932Z,102004.09
2022-12-05T12:12:40.318Z,102000.66
2022-12-05T12:14:55.142Z,101999.75
2022-12-05T12:17:25.724Z,101999.75
2022-12-05T12:19:27.098Z,101994.47
2022-12-05T12:21:54.685Z,101997.09
2022-12-05T12:24:14.906Z,101997.91
2022-12-05T12:26:27.966Z,102003.09
2022-12-05T12:28:41.671Z,102000.44
2022-12-05T12:31:12.754Z,101998.69
2022-12-05T12:33:28.292Z,101989.94
2022-12-05T12:35:50.399Z,101986.47
2022-12-05T12:38:17.222Z,101983.78
2022-12-05T12:40:30.673Z,101988.13
2022-12-05T12:43:02.212Z,101989.88
2022-12-05T12:45:36.266Z,101985.47
2022-12-05T12:47:49.605Z,101985.44
2022-12-05T12:50:14.869Z,101985.41
2022-12-05T12:52:22.631Z,101994.06
2022-12-05T12:57:30.674Z,101993.09
2022-12-05T12:59:34.786Z,101989.56
2022-12-05T13:01:46.455Z,101995.69
2022-12-05T13:03:56.819Z,101994.00
2022-12-05T13:06:02.687Z,101985.31
2022-12-05T13:08:13.256Z,101986.22
2022-12-05T13:10:41.557Z,101990.63
2022-12-05T13:12:44.316Z,101982.72
2022-12-05T13:14:54.218Z,101982.75
2022-12-05T13:16:58.455Z,101981.84
2022-12-05T13:19:01.272Z,101979.22
2022-12-05T13:21:08.930Z,101980.94
2022-12-05T13:23:16.538Z,101977.47
2022-12-05T13:25:21.227Z,101980.09
2022-12-05T13:27:27.444Z,101976.56
2022-12-05T13:29:36.504Z,101975.66
2022-12-05T13:31:42.265Z,101982.59
2022-12-05T13:33:45.027Z,101973.81
2022-12-05T13:36:04.923Z,101979.00
2022-12-05T13:38:25.253Z,101979.81
2022-12-05T13:40:51.109Z,101978.97
2022-12-05T13:43:12.901Z,101975.47
2022-12-05T13:45:20.115Z,101975.50
2022-12-05T13:47:40.297Z,101972.84
2022-12-05T13:49:48.131Z,101977.25
2022-12-05T13:51:50.176Z,101973.75
2022-12-05T13:54:03.139Z,101975.50
2022-12-05T13:56:13.587Z,101976.38
2022-12-05T13:58:42.093Z,101980.69
2022-12-05T14:00:43.606Z,101984.09
2022-12-05T14:02:45.581Z,101992.78
2022-12-05T14:04:50.881Z,101995.38
2022-12-05T14:06:56.796Z,101986.66
2022-12-05T14:08:58.361Z,101995.44
2022-12-05T14:10:59.772Z,101991.06
2022-12-05T14:13:21.272Z,101995.41
2022-12-05T14:15:37.964Z,101991.91
2022-12-05T14:17:44.811Z,101995.38
2022-12-05T14:19:59.728Z,101988.38
2022-12-05T14:22:42.397Z,101990.97
2022-12-05T14:24:59.790Z,101989.19
2022-12-05T14:27:10.568Z,101984.84
2022-12-05T14:29:39.494Z,101997.91
2022-12-05T14:32:03.962Z,101989.19
2022-12-05T14:34:25.071Z,101991.78
2022-12-05T14:36:30.857Z,101994.34
2022-12-05T14:38:34.499Z,101990.81
2022-12-05T14:40:47.388Z,101998.66
2022-12-05T14:42:59.463Z,101988.16
2022-12-05T14:45:03.465Z,102002.09
2022-12-05T14:47:07.006Z,102002.91
2022-12-05T14:49:37.548Z,102000.25
2022-12-05T14:51:45.416Z,102001.13
2022-12-05T14:53:48.771Z,101996.78
2022-12-05T14:56:05.284Z,101998.53
2022-12-05T14:58:17.753Z,101994.16
2022-12-05T15:00:23.688Z,101999.38
2022-12-05T15:02:33.679Z,102001.97
2022-12-05T15:04:51.026Z,102001.03
2022-12-05T15:07:03.097Z,101999.31
2022-12-05T15:09:37.105Z,102001.00
2022-12-05T15:11:39.430Z,102000.09
2022-12-05T15:13:40.941Z,101999.16
2022-12-05T15:15:54.548Z,102000.84
2022-12-05T15:18:05.609Z,102005.19
2022-12-05T15:20:40.695Z,102002.50
2022-12-05T15:22:42.580Z,101999.88
2022-12-05T15:24:44.033Z,102012.13
2022-12-05T15:26:47.996Z,102007.66
2022-12-05T15:29:06.683Z,102010.19
2022-12-05T15:31:13.417Z,102005.69
2022-12-05T15:33:14.959Z,102010.00
2022-12-05T15:35:16.708Z,102018.63
2022-12-05T15:37:23.518Z,102013.38
2022-12-05T15:39:27.056Z,102021.13
2022-12-05T15:41:28.532Z,102021.97
2022-12-05T15:43:32.531Z,102021.13
2022-12-05T15:45:33.976Z,102022.03
2022-12-05T15:47:35.478Z,102025.47
2022-12-05T15:49:36.947Z,102021.06
2022-12-05T15:51:38.919Z,102023.66
2022-12-05T15:53:45.764Z,102029.75
2022-12-05T15:56:00.340Z,102027.09
2022-12-05T15:58:13.447Z,102027.97
2022-12-05T16:00:18.203Z,102025.38
2022-12-05T16:02:29.320Z,102026.22
2022-12-05T16:04:45.330Z,102027.06
2022-12-05T16:06:49.799Z,102024.38
2022-12-05T16:08:51.739Z,102026.03
2022-12-05T16:10:53.195Z,102028.59
2022-12-05T16:12:54.705Z,102022.50
2022-12-05T16:15:01.455Z,102016.41
2022-12-05T16:17:05.167Z,102017.28
2022-12-05T16:19:21.725Z,102020.75
2022-12-05T16:21:39.293Z,102023.34
2022-12-05T16:23:43.367Z,102022.47
2022-12-05T16:25:44.866Z,102029.44
2022-12-05T16:28:17.470Z,102030.31
2022-12-05T16:30:21.431Z,102026.81
2022-12-05T16:32:25.734Z,102027.72
2022-12-05T16:34:29.900Z,102032.91
2022-12-05T16:36:31.801Z,102025.94
2022-12-05T16:38:33.336Z,102033.75
2022-12-05T16:40:34.837Z,102038.09
2022-12-05T16:42:37.457Z,102034.59
2022-12-05T16:45:02.231Z,102028.50
2022-12-05T16:47:04.118Z,102024.19
2022-12-05T16:49:33.260Z,102030.25
2022-12-05T16:51:44.044Z,102033.72
2022-12-05T16:53:50.279Z,102025.94
2022-12-05T16:55:52.414Z,102032.00
2022-12-05T16:57:53.924Z,102031.16
2022-12-05T16:59:57.197Z,102029.44
2022-12-05T17:01:58.961Z,102032.84
2022-12-05T17:04:00.655Z,102031.06
2022-12-05T17:06:02.197Z,102033.63
2022-12-05T17:08:03.806Z,102032.78
2022-12-05T17:10:06.236Z,102028.41
2022-12-05T17:12:17.948Z,102031.91
2022-12-05T17:14:20.118Z,102028.41
2022-12-05T17:16:21.847Z,102030.13
2022-12-05T17:18:28.005Z,102044.06
2022-12-05T17:20:32.855Z,102037.97
2022-12-05T17:22:34.285Z,102043.16
2022-12-05T17:24:35.795Z,102044.06
2022-12-05T17:26:37.235Z,102037.97
2022-12-05T17:28:38.862Z,102039.72
2022-12-05T17:30:40.604Z,102034.50
2022-12-05T17:32:42.039Z,102044.09
2022-12-05T17:34:43.580Z,102044.97
2022-12-05T17:36:45.578Z,102045.88
2022-12-05T17:38:47.089Z,102049.25
2022-12-05T17:40:48.713Z,102048.38
2022-12-05T17:42:50.158Z,102044.91
2022-12-05T17:44:51.661Z,102044.94
2022-12-05T17:46:53.488Z,102041.44
2022-12-05T17:48:54.976Z,102043.16
2022-12-05T17:50:59.406Z,102047.50
2022-12-05T17:53:07.088Z,102042.25
2022-12-05T17:55:17.945Z,102050.06
2022-12-05T17:57:19.699Z,102044.81
2022-12-05T17:59:21.195Z,102046.56
2022-12-05T18:01:23.010Z,102043.06
2022-12-05T18:03:24.656Z,102046.56
2022-12-05T18:05:26.251Z,102047.41
2022-12-05T18:07:27.742Z,102046.50
2022-12-05T18:09:29.217Z,102050.00
2022-12-05T18:11:30.999Z,102053.44
2022-12-05T18:13:33.541Z,102055.22
2022-12-05T18:15:39.476Z,102056.06
2022-12-05T18:17:44.236Z,102068.13
2022-12-05T18:19:45.875Z,102067.25
2022-12-05T18:21:47.509Z,102070.66
2022-12-05T18:23:49.141Z,102073.25
2022-12-05T18:26:00.446Z,102079.22
2022-12-05T18:28:02.140Z,102081.72
2022-12-05T18:30:04.996Z,102071.19
2022-12-05T18:32:06.675Z,102072.81
2022-12-05T18:34:08.375Z,102067.47
2022-12-05T18:36:15.869Z,102071.63
2022-12-05T18:38:17.367Z,102072.41
2022-12-05T18:40:18.875Z,102077.56
2022-12-05T18:42:20.422Z,102073.22
2022-12-05T18:44:21.895Z,102081.06
2022-12-05T18:46:23.793Z,102075.00
2022-12-05T18:48:38.741Z,102075.06
2022-12-05T18:50:42.227Z,102080.25
2022-12-05T18:52:43.679Z,102078.50
2022-12-05T18:54:50.679Z,102085.47
2022-12-05T18:56:59.361Z,102077.63
2022-12-05T18:59:05.357Z,102077.63
2022-12-05T19:01:15.318Z,102073.28
2022-12-05T19:03:16.846Z,102071.53
2022-12-05T19:05:18.326Z,102073.31
2022-12-05T19:07:19.770Z,102069.03
2022-12-05T19:09:23.708Z,102071.69
2022-12-05T19:11:27.231Z,102075.25
2022-12-05T19:13:28.688Z,102066.59
2022-12-05T19:15:30.159Z,102075.31
2022-12-05T19:17:31.615Z,102069.22
2022-12-05T19:19:33.088Z,102069.25
2022-12-05T19:21:35.978Z,102064.06
2022-12-05T19:23:37.490Z,102066.66
2022-12-05T19:25:38.952Z,102066.63
2022-12-05T19:27:40.398Z,102070.94
2022-12-05T19:29:41.859Z,102067.47
2022-12-05T19:31:44.235Z,102072.72
2022-12-05T19:33:47.937Z,102073.59
2022-12-05T19:35:49.395Z,102080.53
2022-12-05T19:37:50.843Z,102073.63
2022-12-05T19:39:52.414Z,102072.78
2022-12-05T19:41:55.179Z,102072.81
2022-12-05T19:44:01.557Z,102078.06
2022-12-05T19:46:09.249Z,102072.06
2022-12-05T19:48:11.030Z,102070.25
2022-12-05T19:50:12.638Z,102078.06
2022-12-05T19:52:17.848Z,102078.03
2022-12-05T19:54:21.846Z,102080.69
2022-12-05T19:56:24.987Z,102082.47
2022-12-05T19:58:26.556Z,102081.59
2022-12-05T20:00:28.171Z,102078.16
2022-12-05T20:02:29.638Z,102072.06
2022-12-05T20:04:31.283Z,102079.88
2022-12-05T20:06:35.350Z,102072.06
2022-12-05T20:08:38.365Z,102072.03
2022-12-05T20:10:40.042Z,102076.34
2022-12-05T20:12:41.520Z,102072.78
2022-12-05T20:14:42.971Z,102078.75
2022-12-05T20:16:44.700Z,102068.19
2022-12-05T20:18:46.834Z,102072.53
2022-12-05T20:20:57.298Z,102069.00
2022-12-05T20:22:58.917Z,102075.94
2022-12-05T20:25:00.887Z,102069.91
2022-12-05T20:27:02.407Z,102068.19
2022-12-05T20:29:05.409Z,102062.19
2022-12-05T20:31:16.864Z,102064.81
2022-12-05T20:33:18.379Z,102063.97
2022-12-05T20:35:24.180Z,102060.53
2022-12-05T20:37:28.717Z,102060.53
2022-12-05T20:39:33.007Z,102064.00
2022-12-05T20:41:35.324Z,102059.59
2022-12-05T20:43:37.591Z,102059.47
2022-12-05T20:45:39.279Z,102054.16
2022-12-05T20:47:40.769Z,102057.66
2022-12-05T20:49:42.350Z,102055.84
2022-12-05T20:51:45.936Z,102055.78
2022-12-05T20:53:47.485Z,102050.53
2022-12-05T20:55:48.983Z,102053.13
2022-12-05T20:57:50.562Z,102053.13
2022-12-05T20:59:52.119Z,102043.63
2022-12-05T21:01:54.564Z,102048.03
2022-12-05T21:03:56.353Z,102044.59
2022-12-05T21:05:58.573Z,102048.13
2022-12-05T21:08:00.179Z,102049.00
2022-12-05T21:10:07.747Z,102048.97
2022-12-05T21:12:09.864Z,102044.59
2022-12-05T21:14:11.956Z,102045.41
2022-12-05T21:16:16.663Z,102047.13
2022-12-05T21:18:20.638Z,102048.84
2022-12-05T21:20:22.179Z,102041.88
2022-12-05T21:22:23.790Z,102038.38
2022-12-05T21:24:25.462Z,102040.09
2022-12-05T21:26:28.881Z,102034.03
2022-12-05T21:28:32.345Z,102033.97
2022-12-05T21:30:34.340Z,102042.72
2022-12-05T21:32:35.840Z,102046.25
2022-12-05T21:34:37.823Z,102041.06
2022-12-05T21:36:39.517Z,102042.88
2022-12-05T21:38:41.019Z,102035.06
2022-12-05T21:40:42.961Z,102045.47
2022-12-05T21:42:44.407Z,102038.50
2022-12-05T21:44:46.222Z,102043.78
2022-12-05T21:46:48.719Z,102036.91
2022-12-05T21:48:50.270Z,102043.94
2022-12-05T21:50:52.439Z,102044.84
2022-12-05T21:52:53.888Z,102037.03
2022-12-05T21:54:55.353Z,102045.69
2022-12-05T21:56:56.804Z,102039.59
2022-12-05T21:58:58.240Z,102036.94
2022-12-05T22:01:00.218Z,102037.88
2022-12-05T22:03:01.854Z,102033.56
2022-12-05T22:05:03.598Z,102030.09
2022-12-05T22:07:05.069Z,102034.47
2022-12-05T22:09:06.552Z,102031.81
2022-12-05T22:11:19.786Z,102026.63
2022-12-05T22:13:21.388Z,102028.31
2022-12-05T22:15:22.841Z,102025.75
2022-12-05T22:17:24.297Z,102037.06
2022-12-05T22:19:25.763Z,102026.63
2022-12-05T22:21:28.141Z,102027.53
2022-12-05T22:23:29.638Z,102022.38
2022-12-05T22:25:31.086Z,102028.41
2022-12-05T22:27:32.591Z,102016.28
2022-12-05T22:29:34.114Z,102015.44
2022-12-05T22:31:35.660Z,102021.63
2022-12-05T22:33:37.717Z,102021.78
2022-12-05T22:35:39.157Z,102020.94
2022-12-05T22:37:40.616Z,102023.56
2022-12-05T22:39:42.098Z,102024.41
2022-12-05T22:41:43.589Z,102015.69
2022-12-05T22:43:46.874Z,102013.06
2022-12-05T22:45:48.562Z,102009.56
2022-12-05T22:47:50.026Z,102014.78
2022-12-05T22:49:51.511Z,102012.16
2022-12-05T22:51:52.960Z,102007.88
2022-12-05T22:53:54.478Z,102007.84
2022-12-05T22:56:02.382Z,102006.94
2022-12-05T22:58:03.840Z,101999.13
2022-12-05T23:00:06.571Z,102006.09
2022-12-05T23:02:08.013Z,102002.66
2022-12-05T23:04:12.423Z,101995.75
2022-12-05T23:06:16.572Z,102002.72
2022-12-05T23:08:18.202Z,102001.00
2022-12-05T23:10:19.725Z,102001.03
2022-12-05T23:12:21.170Z,101994.94
2022-12-05T23:14:22.609Z,101994.97
2022-12-05T23:16:26.443Z,101996.78
2022-12-05T23:18:27.964Z,101998.56
2022-12-05T23:20:29.455Z,101993.44
2022-12-05T23:22:30.893Z,101990.88
2022-12-05T23:24:32.403Z,101988.31
2022-12-05T23:26:37.018Z,101984.00
2022-12-05T23:28:38.555Z,101985.75
2022-12-05T23:30:39.995Z,101994.47
2022-12-05T23:32:41.460Z,101984.94
2022-12-05T23:34:42.911Z,101985.81
2022-12-05T23:36:44.557Z,101984.94
2022-12-05T23:38:46.311Z,101978.88
2022-12-05T23:41:06.007Z,101977.13
2022-12-05T23:43:07.460Z,101976.28
2022-12-05T23:45:09.780Z,101976.38
2022-12-05T23:47:11.382Z,101972.03
2022-12-05T23:49:12.956Z,101976.41
2022-12-05T23:51:20.903Z,101971.22
2022-12-05T23:53:22.347Z,101972.09
2022-12-05T23:55:23.827Z,101970.41
2022-12-05T23:57:25.260Z,101973.06
2022-12-05T23:59:26.792Z,101976.53
